createdAt,value
2023-05-14T00:00:13.440Z,13.20
2023-05-14T00:02:39.904Z,13.18
2023-05-14T00:05:06.572Z,13.13
2023-05-14T00:07:32.877Z,13.13
2023-05-14T00:09:59.683Z,13.10
2023-05-14T00:12:26.598Z,13.05
2023-05-14T00:14:53.396Z,13.00
2023-05-14T00:17:19.766Z,12.95
2023-05-14T00:19:46.068Z,12.89
2023-05-14T00:22:12.437Z,12.81
2023-05-14T00:24:38.743Z,12.81
2023-05-14T00:27:05.254Z,12.75
2023-05-14T00:29:31.569Z,12.67
2023-05-14T00:31:57.869Z,12.68
2023-05-14T00:34:24.500Z,12.66
2023-05-14T00:36:51.310Z,12.61
2023-05-14T00:39:17.626Z,12.52
2023-05-14T00:41:43.938Z,12.48
2023-05-14T00:44:10.299Z,12.48
2023-05-14T00:46:36.703Z,12.46
2023-05-14T00:49:06.098Z,12.45
2023-05-14T00:51:32.458Z,12.42
2023-05-14T00:53:58.889Z,12.43
2023-05-14T00:56:26.716Z,12.46
2023-05-14T00:58:53.054Z,12.43
2023-05-14T01:01:19.446Z,12.36
2023-05-14T01:03:46.042Z,12.28
2023-05-14T01:06:12.457Z,12.26
2023-05-14T01:09:02.970Z,12.22
2023-05-14T01:11:31.549Z,12.24
2023-05-14T01:14:13.316Z,12.19
2023-05-14T01:16:40.499Z,12.13
2023-05-14T01:19:10.442Z,12.11
2023-05-14T01:21:38.064Z,12.09
2023-05-14T01:24:04.608Z,12.08
2023-05-14T01:26:31.546Z,12.05
2023-05-14T01:29:09.401Z,11.99
2023-05-14T01:31:37.884Z,11.96
2023-05-14T01:34:05.614Z,11.90
2023-05-14T01:36:33.028Z,11.81
2023-05-14T01:39:00.665Z,11.76
2023-05-14T01:41:27.563Z,11.62
2023-05-14T01:43:53.961Z,11.59
2023-05-14T01:46:20.345Z,11.52
2023-05-14T01:48:46.663Z,11.50
2023-05-14T01:51:14.647Z,11.49
2023-05-14T01:53:41.012Z,11.51
2023-05-14T01:56:07.433Z,11.53
2023-05-14T01:58:33.748Z,11.53
2023-05-14T02:01:00.121Z,11.49
2023-05-14T02:03:26.475Z,11.46
2023-05-14T02:05:52.796Z,11.50
2023-05-14T02:08:19.108Z,11.55
2023-05-14T02:10:45.447Z,11.49
2023-05-14T02:13:11.729Z,11.41
2023-05-14T02:15:38.098Z,11.25
2023-05-14T02:18:04.571Z,11.17
2023-05-14T02:20:30.942Z,11.18
2023-05-14T02:22:57.245Z,11.18
2023-05-14T02:25:23.696Z,11.21
2023-05-14T02:27:50.105Z,11.20
2023-05-14T02:30:16.402Z,11.22
2023-05-14T02:32:42.779Z,11.20
2023-05-14T02:35:09.342Z,11.19
2023-05-14T02:37:35.790Z,11.13
2023-05-14T02:40:02.173Z,11.09
2023-05-14T02:42:28.479Z,11.04
2023-05-14T02:44:54.838Z,11.07
2023-05-14T02:47:21.462Z,10.97
2023-05-14T02:49:47.800Z,10.92
2023-05-14T02:52:15.664Z,10.90
2023-05-14T02:54:42.064Z,10.89
2023-05-14T02:57:08.380Z,10.85
2023-05-14T02:59:34.965Z,10.81
2023-05-14T03:02:01.729Z,10.80
2023-05-14T03:04:28.845Z,10.77
2023-05-14T03:06:55.335Z,10.73
2023-05-14T03:09:21.669Z,10.58
2023-05-14T03:11:48.023Z,10.73
2023-05-14T03:14:14.348Z,10.71
2023-05-14T03:16:42.260Z,10.70
2023-05-14T03:19:09.988Z,10.68
2023-05-14T03:21:36.476Z,10.61
2023-05-14T03:24:02.930Z,10.55
2023-05-14T03:26:29.230Z,10.60
2023-05-14T03:28:55.545Z,10.62
2023-05-14T03:31:21.984Z,10.63
2023-05-14T03:33:48.350Z,10.63
2023-05-14T03:36:14.658Z,10.63
2023-05-14T03:38:41.140Z,10.66
2023-05-14T03:41:07.443Z,10.63
2023-05-14T03:43:33.746Z,10.63
2023-05-14T03:46:00.059Z,10.62
2023-05-14T03:48:26.547Z,10.59
2023-05-14T03:50:52.969Z,10.57
2023-05-14T03:53:19.329Z,10.60
2023-05-14T03:55:45.744Z,10.66
2023-05-14T03:58:14.304Z,10.67
2023-05-14T04:00:43.690Z,10.69
2023-05-14T04:03:10.339Z,10.71
2023-05-14T04:05:36.747Z,10.70
2023-05-14T04:08:03.038Z,10.65
2023-05-14T04:10:29.808Z,10.67
2023-05-14T04:12:56.230Z,10.69
2023-05-14T04:15:22.662Z,10.69
2023-05-14T04:17:49.211Z,10.70
2023-05-14T04:20:15.737Z,10.72
2023-05-14T04:22:42.108Z,10.71
2023-05-14T04:25:08.519Z,10.73
2023-05-14T04:27:34.896Z,10.74
2023-05-14T04:30:01.216Z,10.75
2023-05-14T04:32:27.570Z,10.77
2023-05-14T04:34:54.088Z,10.78
2023-05-14T04:37:20.431Z,10.77
2023-05-14T04:39:46.785Z,10.75
2023-05-14T04:42:13.500Z,10.75
2023-05-14T04:44:39.917Z,10.73
2023-05-14T04:47:07.016Z,10.73
2023-05-14T04:49:33.469Z,10.73
2023-05-14T04:52:00.898Z,10.75
2023-05-14T04:54:27.216Z,10.74
2023-05-14T04:56:55.778Z,10.72
2023-05-14T04:59:22.278Z,10.73
2023-05-14T05:01:48.803Z,10.75
2023-05-14T05:04:15.333Z,10.76
2023-05-14T05:06:41.747Z,10.79
2023-05-14T05:09:09.496Z,10.86
2023-05-14T05:11:35.925Z,10.89
2023-05-14T05:14:02.308Z,10.97
2023-05-14T05:16:28.699Z,11.04
2023-05-14T05:18:55.088Z,11.12
2023-05-14T05:21:21.476Z,11.18
2023-05-14T05:23:47.790Z,11.24
2023-05-14T05:26:14.096Z,11.33
2023-05-14T05:28:40.609Z,11.43
2023-05-14T05:31:07.135Z,11.53
2023-05-14T05:33:34.217Z,11.66
2023-05-14T05:36:00.775Z,11.80
2023-05-14T05:38:27.085Z,11.91
2023-05-14T05:40:53.756Z,12.00
2023-05-14T05:43:20.132Z,12.10
2023-05-14T05:45:46.537Z,12.17
2023-05-14T05:48:12.830Z,12.30
2023-05-14T05:50:39.174Z,12.47
2023-05-14T05:53:05.511Z,12.62
2023-05-14T05:55:31.929Z,12.79
2023-05-14T05:57:58.252Z,12.98
2023-05-14T06:00:25.157Z,13.15
2023-05-14T06:02:51.751Z,13.27
2023-05-14T06:05:19.296Z,13.39
2023-05-14T06:07:45.738Z,13.47
2023-05-14T06:10:12.122Z,13.58
2023-05-14T06:12:38.563Z,13.67
2023-05-14T06:15:05.096Z,13.72
2023-05-14T06:17:32.549Z,13.78
2023-05-14T06:19:59.013Z,13.83
2023-05-14T06:22:25.367Z,13.92
2023-05-14T06:24:51.760Z,13.95
2023-05-14T06:27:18.052Z,14.00
2023-05-14T06:29:44.345Z,14.03
2023-05-14T06:32:10.799Z,14.09
2023-05-14T06:34:37.222Z,14.14
2023-05-14T06:37:04.205Z,14.20
2023-05-14T06:39:30.650Z,14.28
2023-05-14T06:41:57.208Z,14.32
2023-05-14T06:44:23.597Z,14.49
2023-05-14T06:46:49.898Z,14.59
2023-05-14T06:49:16.426Z,14.62
2023-05-14T06:51:43.718Z,14.89
2023-05-14T06:54:10.045Z,15.02
2023-05-14T06:56:36.417Z,15.15
2023-05-14T06:59:02.826Z,15.29
2023-05-14T07:01:29.249Z,15.43
2023-05-14T07:03:55.810Z,15.58
2023-05-14T07:06:22.514Z,15.68
2023-05-14T07:08:49.066Z,15.73
2023-05-14T07:11:15.591Z,15.81
2023-05-14T07:13:42.654Z,15.85
2023-05-14T07:16:11.780Z,15.92
2023-05-14T07:18:38.104Z,15.97
2023-05-14T07:21:09.287Z,16.02
2023-05-14T07:23:38.437Z,16.03
2023-05-14T07:26:05.722Z,16.08
2023-05-14T07:28:32.129Z,16.12
2023-05-14T07:30:59.805Z,16.15
2023-05-14T07:33:26.459Z,16.18
2023-05-14T07:35:53.318Z,16.20
2023-05-14T07:38:20.024Z,16.27
2023-05-14T07:40:46.305Z,16.36
2023-05-14T07:43:12.776Z,16.46
2023-05-14T07:45:39.289Z,16.58
2023-05-14T07:48:12.866Z,16.68
2023-05-14T07:50:39.313Z,16.79
2023-05-14T07:53:05.692Z,16.93
2023-05-14T07:55:32.003Z,17.06
2023-05-14T07:57:58.359Z,17.19
2023-05-14T08:00:24.898Z,17.28
2023-05-14T08:02:51.868Z,17.25
2023-05-14T08:05:18.496Z,17.46
2023-05-14T08:07:44.828Z,17.53
2023-05-14T08:10:11.205Z,17.70
2023-05-14T08:12:37.605Z,17.78
2023-05-14T08:15:05.559Z,17.91
2023-05-14T08:17:31.911Z,18.00
2023-05-14T08:19:58.329Z,18.10
2023-05-14T08:22:24.686Z,18.20
2023-05-14T08:24:50.982Z,18.29
2023-05-14T08:27:17.397Z,18.38
2023-05-14T08:29:45.797Z,18.40
2023-05-14T08:32:22.556Z,18.45
2023-05-14T08:34:50.045Z,18.49
2023-05-14T08:37:16.354Z,18.58
2023-05-14T08:39:42.663Z,18.75
2023-05-14T08:42:12.137Z,18.94
2023-05-14T08:44:44.545Z,19.07
2023-05-14T08:47:13.666Z,19.17
2023-05-14T08:49:44.864Z,19.18
2023-05-14T08:52:11.932Z,19.15
2023-05-14T08:54:38.719Z,19.23
2023-05-14T08:57:05.427Z,19.38
2023-05-14T08:59:31.964Z,19.52
2023-05-14T09:02:01.063Z,19.69
2023-05-14T09:04:27.813Z,19.79
2023-05-14T09:06:55.557Z,19.89
2023-05-14T09:09:22.584Z,19.97
2023-05-14T09:11:49.744Z,20.07
2023-05-14T09:14:16.230Z,20.21
2023-05-14T09:16:45.178Z,20.28
2023-05-14T09:19:12.594Z,20.37
2023-05-14T09:21:40.228Z,20.54
2023-05-14T09:24:08.131Z,20.66
2023-05-14T09:26:37.395Z,20.87
2023-05-14T09:29:05.848Z,21.02
2023-05-14T09:31:33.092Z,21.11
2023-05-14T09:33:59.920Z,21.08
2023-05-14T09:36:28.925Z,21.21
2023-05-14T09:38:58.401Z,21.41
2023-05-14T09:41:25.023Z,21.68
2023-05-14T09:43:51.566Z,21.83
2023-05-14T09:46:17.931Z,22.05
2023-05-14T09:48:45.731Z,22.29
2023-05-14T09:51:12.948Z,22.60
2023-05-14T09:53:41.188Z,22.96
2023-05-14T09:56:07.560Z,23.32
2023-05-14T09:58:36.634Z,23.59
2023-05-14T10:01:03.489Z,23.95
2023-05-14T10:03:30.392Z,24.25
2023-05-14T10:06:00.647Z,24.65
2023-05-14T10:08:30.808Z,25.06
2023-05-14T10:10:58.712Z,25.52
2023-05-14T10:13:30.381Z,26.12
2023-05-14T10:16:05.913Z,26.56
2023-05-14T10:18:34.445Z,26.98
2023-05-14T10:21:06.143Z,27.44
2023-05-14T10:23:33.500Z,27.48
2023-05-14T10:26:00.450Z,27.76
2023-05-14T10:28:27.710Z,28.15
2023-05-14T10:30:54.492Z,28.67
2023-05-14T10:33:21.003Z,28.98
2023-05-14T10:35:59.322Z,28.98
2023-05-14T10:38:28.463Z,28.79
2023-05-14T10:41:02.269Z,28.97
2023-05-14T10:43:30.774Z,28.91
2023-05-14T10:45:58.358Z,28.97
2023-05-14T10:48:25.769Z,29.22
2023-05-14T10:50:55.592Z,29.57
2023-05-14T10:53:30.745Z,29.82
2023-05-14T10:55:57.181Z,30.24
2023-05-14T10:58:23.488Z,30.21
2023-05-14T11:00:54.420Z,30.47
2023-05-14T11:03:21.089Z,30.48
2023-05-14T11:05:47.744Z,30.57
2023-05-14T11:08:14.157Z,31.01
2023-05-14T11:10:41.914Z,30.79
2023-05-14T11:13:08.358Z,30.91
2023-05-14T11:15:34.860Z,31.18
2023-05-14T11:18:01.269Z,30.37
2023-05-14T11:20:27.816Z,29.67
2023-05-14T11:22:55.293Z,29.73
2023-05-14T11:25:22.879Z,30.53
2023-05-14T11:27:49.939Z,31.10
2023-05-14T11:30:17.289Z,31.19
2023-05-14T11:32:44.458Z,31.30
2023-05-14T11:35:11.146Z,31.67
2023-05-14T11:37:38.394Z,31.69
2023-05-14T11:40:07.823Z,32.20
2023-05-14T11:42:43.366Z,32.57
2023-05-14T11:45:13.960Z,32.91
2023-05-14T11:47:43.225Z,31.37
2023-05-14T11:50:10.024Z,29.64
2023-05-14T11:52:40.358Z,30.20
2023-05-14T11:55:10.194Z,31.22
2023-05-14T11:57:36.622Z,31.51
2023-05-14T12:00:04.618Z,31.61
2023-05-14T12:02:31.631Z,31.75
2023-05-14T12:05:00.474Z,31.91
2023-05-14T12:07:28.795Z,32.31
2023-05-14T12:09:55.130Z,32.74
2023-05-14T12:12:22.104Z,32.83
2023-05-14T12:14:49.275Z,31.45
2023-05-14T12:17:17.088Z,31.73
2023-05-14T12:19:44.092Z,32.02
2023-05-14T12:22:11.018Z,32.00
2023-05-14T12:24:37.552Z,31.70
2023-05-14T12:27:04.091Z,31.03
2023-05-14T12:29:30.512Z,30.80
2023-05-14T12:31:58.246Z,30.39
2023-05-14T12:34:24.655Z,29.88
2023-05-14T12:36:51.081Z,31.32
2023-05-14T12:39:17.720Z,32.36
2023-05-14T12:41:44.149Z,32.30
2023-05-14T12:44:10.631Z,33.03
2023-05-14T12:46:37.017Z,33.81
2023-05-14T12:49:03.734Z,33.28
2023-05-14T12:51:30.258Z,32.91
2023-05-14T12:53:56.559Z,33.18
2023-05-14T12:56:27.724Z,31.80
2023-05-14T12:58:55.368Z,30.47
2023-05-14T13:01:22.020Z,29.66
2023-05-14T13:03:48.483Z,28.87
2023-05-14T13:06:14.927Z,28.37
2023-05-14T13:08:42.693Z,27.94
2023-05-14T13:11:09.152Z,27.72
2023-05-14T13:13:35.855Z,29.24
2023-05-14T13:16:02.172Z,30.48
2023-05-14T13:18:28.631Z,31.00
2023-05-14T13:20:54.999Z,31.36
2023-05-14T13:23:21.563Z,31.61
2023-05-14T13:25:49.850Z,32.33
2023-05-14T13:28:16.396Z,32.47
2023-05-14T13:31:02.670Z,32.72
2023-05-14T13:33:29.040Z,32.82
2023-05-14T13:35:55.491Z,32.91
2023-05-14T13:38:21.825Z,32.89
2023-05-14T13:40:48.155Z,33.47
2023-05-14T13:43:16.814Z,34.11
2023-05-14T13:45:43.186Z,33.55
2023-05-14T13:48:09.613Z,32.16
2023-05-14T13:50:35.979Z,31.60
2023-05-14T13:53:02.301Z,31.26
2023-05-14T13:55:28.699Z,30.07
2023-05-14T13:57:55.319Z,29.26
2023-05-14T14:00:21.960Z,28.70
2023-05-14T14:02:48.432Z,29.46
2023-05-14T14:05:14.861Z,30.74
2023-05-14T14:07:41.320Z,31.28
2023-05-14T14:10:08.249Z,31.63
2023-05-14T14:12:34.676Z,31.80
2023-05-14T14:15:02.743Z,31.96
2023-05-14T14:17:29.151Z,31.55
2023-05-14T14:19:55.625Z,30.68
2023-05-14T14:22:22.467Z,29.84
2023-05-14T14:24:49.136Z,29.70
2023-05-14T14:27:15.656Z,29.20
2023-05-14T14:29:41.981Z,28.67
2023-05-14T14:32:08.376Z,28.46
2023-05-14T14:34:34.793Z,28.82
2023-05-14T14:37:01.136Z,28.70
2023-05-14T14:39:27.600Z,27.95
2023-05-14T14:41:54.005Z,27.51
2023-05-14T14:44:21.530Z,27.09
2023-05-14T14:46:47.951Z,26.85
2023-05-14T14:49:14.610Z,26.76
2023-05-14T14:51:41.051Z,26.95
2023-05-14T14:54:07.453Z,27.17
2023-05-14T14:56:34.093Z,27.32
2023-05-14T14:59:01.100Z,27.36
2023-05-14T15:01:27.816Z,27.33
2023-05-14T15:03:54.934Z,27.61
2023-05-14T15:06:21.284Z,27.66
2023-05-14T15:08:47.640Z,27.23
2023-05-14T15:11:14.313Z,27.05
2023-05-14T15:13:41.892Z,27.35
2023-05-14T15:16:11.327Z,27.66
2023-05-14T15:18:37.854Z,28.02
2023-05-14T15:21:04.509Z,28.10
2023-05-14T15:23:30.966Z,28.23
2023-05-14T15:25:57.468Z,28.10
2023-05-14T15:28:23.959Z,28.22
2023-05-14T15:30:50.438Z,28.24
2023-05-14T15:33:19.131Z,28.26
2023-05-14T15:35:45.785Z,28.21
2023-05-14T15:38:12.285Z,28.26
2023-05-14T15:40:38.772Z,28.46
2023-05-14T15:43:05.254Z,28.42
2023-05-14T15:45:31.688Z,28.41
2023-05-14T15:47:58.188Z,28.25
2023-05-14T15:50:25.812Z,27.85
2023-05-14T15:52:52.479Z,27.51
2023-05-14T15:55:18.919Z,27.32
2023-05-14T15:57:45.528Z,27.04
2023-05-14T16:00:12.183Z,26.72
2023-05-14T16:02:39.091Z,26.41
2023-05-14T16:05:05.878Z,26.35
2023-05-14T16:07:33.173Z,26.32
2023-05-14T16:09:59.802Z,26.16
2023-05-14T16:12:26.390Z,25.98
2023-05-14T16:14:52.766Z,25.88
2023-05-14T16:17:19.260Z,25.73
2023-05-14T16:19:45.708Z,25.50
2023-05-14T16:22:12.146Z,25.29
2023-05-14T16:24:38.721Z,24.99
2023-05-14T16:27:05.252Z,24.81
2023-05-14T16:29:31.838Z,24.73
2023-05-14T16:31:58.637Z,24.59
2023-05-14T16:34:25.241Z,24.55
2023-05-14T16:36:51.639Z,24.62
2023-05-14T16:39:18.092Z,24.64
2023-05-14T16:41:44.433Z,24.60
2023-05-14T16:44:10.866Z,24.66
2023-05-14T16:46:37.347Z,24.79
2023-05-14T16:49:03.831Z,24.72
2023-05-14T16:51:30.360Z,24.74
2023-05-14T16:53:56.728Z,24.75
2023-05-14T16:56:23.087Z,24.68
2023-05-14T16:58:49.555Z,24.60
2023-05-14T17:01:15.941Z,24.55
2023-05-14T17:03:43.464Z,24.62
2023-05-14T17:06:10.223Z,24.55
2023-05-14T17:08:36.635Z,24.49
2023-05-14T17:11:05.648Z,24.37
2023-05-14T17:13:32.980Z,24.34
2023-05-14T17:15:59.732Z,24.30
2023-05-14T17:18:26.088Z,24.14
2023-05-14T17:20:52.422Z,24.07
2023-05-14T17:23:19.809Z,23.96
2023-05-14T17:25:46.149Z,23.83
2023-05-14T17:28:12.687Z,23.85
2023-05-14T17:30:39.169Z,23.85
2023-05-14T17:33:05.727Z,23.76
2023-05-14T17:35:35.801Z,23.65
2023-05-14T17:38:03.106Z,23.52
2023-05-14T17:40:29.546Z,23.32
2023-05-14T17:42:55.977Z,23.22
2023-05-14T17:45:22.474Z,23.09
2023-05-14T17:47:49.137Z,22.92
2023-05-14T17:50:15.589Z,22.69
2023-05-14T17:52:44.133Z,22.53
2023-05-14T17:55:13.470Z,22.33
2023-05-14T17:57:40.068Z,22.17
2023-05-14T18:00:07.485Z,22.04
2023-05-14T18:02:33.849Z,21.97
2023-05-14T18:05:00.453Z,21.86
2023-05-14T18:07:26.880Z,21.73
2023-05-14T18:09:53.202Z,21.61
2023-05-14T18:12:19.572Z,21.48
2023-05-14T18:14:45.989Z,21.37
2023-05-14T18:17:12.331Z,21.26
2023-05-14T18:19:38.823Z,21.22
2023-05-14T18:22:05.305Z,21.13
2023-05-14T18:24:31.697Z,21.00
2023-05-14T18:26:58.131Z,20.84
2023-05-14T18:29:24.520Z,20.69
2023-05-14T18:31:51.019Z,20.61
2023-05-14T18:34:17.467Z,20.52
2023-05-14T18:36:43.838Z,20.41
2023-05-14T18:39:10.232Z,20.28
2023-05-14T18:41:36.583Z,20.19
2023-05-14T18:44:03.059Z,20.09
2023-05-14T18:46:29.638Z,19.96
2023-05-14T18:48:59.193Z,19.86
2023-05-14T18:51:25.527Z,19.77
2023-05-14T18:53:51.916Z,19.70
2023-05-14T18:56:18.210Z,19.62
2023-05-14T18:58:44.569Z,19.53
2023-05-14T19:01:10.924Z,19.42
2023-05-14T19:03:37.437Z,19.38
2023-05-14T19:06:04.007Z,19.23
2023-05-14T19:08:30.365Z,19.13
2023-05-14T19:10:56.701Z,19.04
2023-05-14T19:13:23.791Z,18.93
2023-05-14T19:15:50.343Z,18.90
2023-05-14T19:18:17.615Z,18.84
2023-05-14T19:20:46.226Z,18.73
2023-05-14T19:23:12.678Z,18.65
2023-05-14T19:25:39.038Z,18.61
2023-05-14T19:28:05.886Z,18.51
2023-05-14T19:30:32.192Z,18.39
2023-05-14T19:32:58.786Z,18.26
2023-05-14T19:35:25.535Z,18.20
2023-05-14T19:37:52.072Z,18.13
2023-05-14T19:40:18.730Z,18.10
2023-05-14T19:42:45.251Z,18.04
2023-05-14T19:45:11.663Z,17.97
2023-05-14T19:47:38.136Z,17.95
2023-05-14T19:50:05.020Z,17.89
2023-05-14T19:52:31.372Z,17.81
2023-05-14T19:54:57.718Z,17.73
2023-05-14T19:57:24.059Z,17.69
2023-05-14T19:59:50.508Z,17.66
2023-05-14T20:02:18.196Z,17.60
2023-05-14T20:04:46.236Z,17.54
2023-05-14T20:07:13.953Z,17.45
2023-05-14T20:09:40.492Z,17.36
2023-05-14T20:12:07.087Z,17.28
2023-05-14T20:14:33.452Z,17.25
2023-05-14T20:16:59.974Z,17.23
2023-05-14T20:19:29.201Z,17.21
2023-05-14T20:21:56.439Z,17.20
2023-05-14T20:24:23.019Z,17.13
2023-05-14T20:26:49.457Z,17.11
2023-05-14T20:29:16.003Z,17.12
2023-05-14T20:31:42.368Z,17.04
2023-05-14T20:34:08.676Z,17.02
2023-05-14T20:36:35.819Z,17.00
2023-05-14T20:39:02.229Z,16.97
2023-05-14T20:41:28.597Z,16.98
2023-05-14T20:43:54.931Z,17.01
2023-05-14T20:46:21.607Z,17.04
2023-05-14T20:48:48.645Z,17.01
2023-05-14T20:51:15.023Z,16.99
2023-05-14T20:53:41.715Z,16.94
2023-05-14T20:56:08.088Z,16.90
2023-05-14T20:58:35.002Z,16.88
2023-05-14T21:01:01.331Z,16.84
2023-05-14T21:03:27.742Z,16.76
2023-05-14T21:05:55.978Z,16.69
2023-05-14T21:08:22.398Z,16.61
2023-05-14T21:10:48.767Z,16.52
2023-05-14T21:13:15.135Z,16.51
2023-05-14T21:15:41.655Z,16.47
2023-05-14T21:18:08.074Z,16.41
2023-05-14T21:20:34.414Z,16.40
2023-05-14T21:23:00.802Z,16.32
2023-05-14T21:25:27.292Z,16.20
2023-05-14T21:27:53.690Z,16.20
2023-05-14T21:30:20.243Z,16.18
2023-05-14T21:32:46.609Z,16.12
2023-05-14T21:35:13.124Z,16.09
2023-05-14T21:37:39.814Z,16.05
2023-05-14T21:40:09.136Z,16.03
2023-05-14T21:42:36.054Z,16.01
2023-05-14T21:45:02.437Z,15.95
2023-05-14T21:47:28.947Z,15.87
2023-05-14T21:49:55.350Z,15.83
2023-05-14T21:52:21.690Z,15.81
2023-05-14T21:54:48.017Z,15.75
2023-05-14T21:57:14.369Z,15.69
2023-05-14T21:59:40.722Z,15.57
2023-05-14T22:02:07.900Z,15.46
2023-05-14T22:04:35.193Z,15.41
2023-05-14T22:07:01.896Z,15.41
2023-05-14T22:09:28.806Z,15.40
2023-05-14T22:11:55.119Z,15.40
2023-05-14T22:14:21.450Z,15.36
2023-05-14T22:16:47.854Z,15.27
2023-05-14T22:19:16.414Z,15.25
2023-05-14T22:21:42.810Z,15.26
2023-05-14T22:24:09.125Z,15.24
2023-05-14T22:26:35.555Z,15.19
2023-05-14T22:29:01.894Z,15.17
2023-05-14T22:31:28.376Z,15.17
2023-05-14T22:33:54.870Z,15.11
2023-05-14T22:36:21.170Z,15.09
2023-05-14T22:38:47.557Z,15.09
2023-05-14T22:41:13.944Z,15.11
2023-05-14T22:43:40.398Z,15.05
2023-05-14T22:46:06.898Z,15.02
2023-05-14T22:48:33.326Z,14.93
2023-05-14T22:50:59.695Z,14.84
2023-05-14T22:53:26.185Z,14.77
2023-05-14T22:55:52.653Z,14.65
2023-05-14T22:58:18.977Z,14.63
2023-05-14T23:00:45.314Z,14.65
2023-05-14T23:03:11.803Z,14.64
2023-05-14T23:05:38.186Z,14.62
2023-05-14T23:08:05.067Z,14.58
2023-05-14T23:10:31.436Z,14.53
2023-05-14T23:12:57.750Z,14.45
2023-05-14T23:15:24.488Z,14.44
2023-05-14T23:17:50.969Z,14.32
2023-05-14T23:20:17.449Z,14.30
2023-05-14T23:22:43.833Z,14.26
2023-05-14T23:25:10.312Z,14.30
2023-05-14T23:27:36.695Z,14.30
2023-05-14T23:30:03.744Z,14.27
2023-05-14T23:32:30.439Z,14.24
2023-05-14T23:34:56.863Z,14.25
2023-05-14T23:37:23.260Z,14.23
2023-05-14T23:39:49.632Z,14.16
2023-05-14T23:42:15.951Z,14.14
2023-05-14T23:44:42.323Z,14.12
2023-05-14T23:47:08.794Z,14.12
2023-05-14T23:49:35.488Z,14.11
2023-05-14T23:52:02.339Z,14.06
2023-05-14T23:54:28.652Z,14.08
2023-05-14T23:56:55.012Z,14.02
2023-05-14T23:59:22.093Z,13.98
